Time;durP1;ratioP1;P1;durP2;ratioP2;P2;SDS_P1;SDS_P2;PMS_P1;PMS_P2;Temp;Humidity;BMP_temperature;BMP_pressure;BME280_temperature;BME280_humidity;BME280_pressure;Samples;Min_cycle;Max_cycle;Signal;HPM_P1;HPM_P2
2022/11/26 01:53:39;;;;;;;25.53;12.40;;;;;;;;;;5019100;23;20223;-93
2022/11/26 01:56:13;;;;;;;19.37;10.03;;;;;;;;;;4919057;29;20455;-93
2022/11/26 01:58:58;;;;;;;21.20;11.80;;;;;;;;;;4923751;29;20479;-93
2022/11/26 02:01:25;;;;;;;29.47;12.10;;;;;;;;;;4920811;29;20495;-94
2022/11/26 02:03:58;;;;;;;22.97;11.30;;;;;;;;;;4902884;29;20487;-93
2022/11/26 02:06:26;;;;;;;26.67;12.00;;;;;;;;;;4918058;29;20475;-94
2022/11/26 02:08:53;;;;;;;33.43;12.90;;;;;;;;;;4922400;29;20448;-93
2022/11/26 02:11:25;;;;;;;33.33;12.47;;;;;;;;;;4902975;29;20432;-93
2022/11/26 02:14:01;;;;;;;25.90;11.50;;;;;;;;;;4900333;29;20421;-95
2022/11/26 02:16:41;;;;;;;24.52;11.00;;;;;;;;;;4887231;29;20439;-94
2022/11/26 02:19:39;;;;;;;24.10;11.30;;;;;;;;;;4905272;29;20240;-94
2022/11/26 02:22:12;;;;;;;33.80;12.23;;;;;;;;;;4912755;29;20450;-94
2022/11/26 02:24:59;;;;;;;23.00;10.65;;;;;;;;;;4925591;29;20427;-94
2022/11/26 02:27:41;;;;;;;27.47;11.40;;;;;;;;;;4923297;29;20188;-96
2022/11/26 02:30:14;;;;;;;32.57;16.50;;;;;;;;;;4920688;29;20470;-94
2022/11/26 02:32:43;;;;;;;28.53;14.03;;;;;;;;;;4905630;29;20480;-94
2022/11/26 02:35:16;;;;;;;24.10;11.80;;;;;;;;;;4907834;29;20468;-95
2022/11/26 02:37:52;;;;;;;27.25;12.18;;;;;;;;;;4892105;29;20468;-92
2022/11/26 02:40:24;;;;;;;22.80;11.00;;;;;;;;;;4894169;29;20216;-93
2022/11/26 02:42:54;;;;;;;27.08;10.57;;;;;;;;;;4876663;29;20460;-94
2022/11/26 02:45:23;;;;;;;30.95;12.57;;;;;;;;;;4890357;29;20197;-94
2022/11/26 02:47:51;;;;;;;22.25;11.60;;;;;;;;;;4891178;29;20195;-94
2022/11/26 02:50:40;;;;;;;25.77;11.27;;;;;;;;;;4888903;29;20196;-95
2022/11/26 02:53:06;;;;;;;21.67;11.88;;;;;;;;;;4877115;29;20449;-93
2022/11/26 02:55:35;;;;;;;26.35;12.27;;;;;;;;;;4868159;29;20225;-94
2022/11/26 02:58:01;;;;;;;27.50;11.17;;;;;;;;;;4883080;29;20205;-93
2022/11/26 03:00:27;;;;;;;29.73;11.88;;;;;;;;;;4887859;29;20493;-96
2022/11/26 03:03:00;;;;;;;28.65;11.02;;;;;;;;;;4905027;29;20207;-92
2022/11/26 03:05:27;;;;;;;26.98;11.90;;;;;;;;;;4890587;29;20212;-94
2022/11/26 03:07:53;;;;;;;22.43;11.27;;;;;;;;;;4887293;29;20240;-95
2022/11/26 03:10:24;;;;;;;21.52;11.10;;;;;;;;;;4889755;29;20516;-94
2022/11/26 03:12:50;;;;;;;26.38;11.00;;;;;;;;;;4890212;29;20205;-94
2022/11/26 03:15:16;;;;;;;16.63;9.98;;;;;;;;;;4885657;29;20193;-94
2022/11/26 03:17:42;;;;;;;14.07;9.85;;;;;;;;;;4905299;29;20215;-94
2022/11/26 03:20:08;;;;;;;24.70;10.70;;;;;;;;;;4898840;29;20204;-94
2022/11/26 03:22:35;;;;;;;15.00;9.13;;;;;;;;;;4903133;29;20268;-94
2022/11/26 03:25:01;;;;;;;33.65;15.88;;;;;;;;;;4903079;29;20402;-94
2022/11/26 03:27:27;;;;;;;35.67;11.30;;;;;;;;;;4902755;29;20208;-94
2022/11/26 03:29:53;;;;;;;22.53;12.13;;;;;;;;;;4905677;29;20204;-93
2022/11/26 03:32:19;;;;;;;24.20;12.25;;;;;;;;;;4894257;29;20465;-94
2022/11/26 03:34:45;;;;;;;19.15;10.55;;;;;;;;;;4904288;29;20184;-94
2022/11/26 03:37:11;;;;;;;24.07;11.30;;;;;;;;;;4900401;29;20264;-94
2022/11/26 03:39:37;;;;;;;19.40;11.10;;;;;;;;;;4899239;29;20479;-93
2022/11/26 03:42:03;;;;;;;27.23;12.80;;;;;;;;;;4879920;29;20234;-95
2022/11/26 03:44:29;;;;;;;26.60;14.60;;;;;;;;;;4877969;29;20242;-95
2022/11/26 03:46:55;;;;;;;26.52;13.90;;;;;;;;;;4903483;29;20440;-93
2022/11/26 03:49:21;;;;;;;29.38;13.10;;;;;;;;;;4905525;29;20195;-92
2022/11/26 03:51:47;;;;;;;30.25;13.35;;;;;;;;;;4903462;29;20244;-93
2022/11/26 03:54:14;;;;;;;23.65;14.95;;;;;;;;;;4903704;29;20264;-94
2022/11/26 03:56:42;;;;;;;25.58;12.77;;;;;;;;;;4901433;29;20231;-95
2022/11/26 03:59:08;;;;;;;23.58;11.88;;;;;;;;;;4901601;29;20224;-94
2022/11/26 04:01:34;;;;;;;26.63;10.60;;;;;;;;;;4894616;29;20380;-94
2022/11/26 04:04:00;;;;;;;37.40;12.68;;;;;;;;;;4893715;29;20264;-94
2022/11/26 04:06:26;;;;;;;29.80;12.60;;;;;;;;;;4890573;29;20212;-94
2022/11/26 04:08:52;;;;;;;30.70;13.75;;;;;;;;;;4883811;29;20459;-94
2022/11/26 04:11:19;;;;;;;24.63;14.07;;;;;;;;;;4880535;29;20264;-94
2022/11/26 04:13:45;;;;;;;31.37;16.77;;;;;;;;;;4881610;29;20445;-96
2022/11/26 04:16:11;;;;;;;36.47;15.13;;;;;;;;;;4880467;29;20444;-94
2022/11/26 04:18:37;;;;;;;26.75;12.88;;;;;;;;;;4880731;29;20443;-95
2022/11/26 04:21:05;;;;;;;26.30;15.20;;;;;;;;;;4876423;29;20213;-92
2022/11/26 04:23:31;;;;;;;38.23;14.60;;;;;;;;;;4880748;29;20441;-95
2022/11/26 04:25:57;;;;;;;42.72;15.32;;;;;;;;;;4878116;29;20456;-96
2022/11/26 04:28:23;;;;;;;42.25;17.33;;;;;;;;;;4880760;29;20203;-94
2022/11/26 04:30:52;;;;;;;29.60;15.27;;;;;;;;;;4879622;29;20211;-92
2022/11/26 04:33:18;;;;;;;29.83;14.60;;;;;;;;;;4883288;29;20205;-93
2022/11/26 04:35:44;;;;;;;29.53;16.20;;;;;;;;;;4880205;29;20496;-93
2022/11/26 04:38:10;;;;;;;35.20;15.20;;;;;;;;;;4882772;29;20452;-93
2022/11/26 04:40:36;;;;;;;34.17;15.80;;;;;;;;;;4879660;29;20495;-94
2022/11/26 04:43:02;;;;;;;43.13;15.80;;;;;;;;;;4892473;29;20192;-93
2022/11/26 04:45:28;;;;;;;53.42;19.88;;;;;;;;;;4878904;29;20440;-92
2022/11/26 04:47:54;;;;;;;47.93;19.43;;;;;;;;;;4879999;29;20209;-92
2022/11/26 04:50:20;;;;;;;47.20;19.35;;;;;;;;;;4878204;29;20479;-93
2022/11/26 04:52:47;;;;;;;38.97;21.70;;;;;;;;;;4879078;29;20729;-94
2022/11/26 04:55:14;;;;;;;44.80;18.80;;;;;;;;;;4878357;29;20164;-93
2022/11/26 04:57:43;;;;;;;31.67;16.73;;;;;;;;;;4879761;29;20951;-94
2022/11/26 05:00:10;;;;;;;51.13;17.75;;;;;;;;;;4879970;29;20556;-94
2022/11/26 05:02:36;;;;;;;35.33;17.07;;;;;;;;;;4879490;29;20232;-94
2022/11/26 05:05:02;;;;;;;38.73;18.27;;;;;;;;;;4878664;29;20449;-93
2022/11/26 05:07:28;;;;;;;25.57;15.73;;;;;;;;;;4877982;29;20445;-95
2022/11/26 05:09:54;;;;;;;26.83;14.33;;;;;;;;;;4881007;29;20520;-94
2022/11/26 05:12:20;;;;;;;44.03;16.80;;;;;;;;;;4878011;29;20451;-94
2022/11/26 05:14:46;;;;;;;27.13;15.05;;;;;;;;;;4880531;29;20419;-94
2022/11/26 05:17:13;;;;;;;32.30;15.23;;;;;;;;;;4877927;29;20208;-95
2022/11/26 05:19:39;;;;;;;42.30;16.40;;;;;;;;;;4880134;29;20619;-94
2022/11/26 05:22:05;;;;;;;28.98;15.85;;;;;;;;;;4879049;29;20200;-94
2022/11/26 05:24:33;;;;;;;46.47;16.80;;;;;;;;;;4880574;29;20203;-94
2022/11/26 05:26:59;;;;;;;42.50;19.05;;;;;;;;;;4879271;29;20464;-94
2022/11/26 05:29:26;;;;;;;38.00;18.07;;;;;;;;;;4882326;29;20235;-92
2022/11/26 05:31:54;;;;;;;40.30;17.47;;;;;;;;;;4879490;29;20437;-93
2022/11/26 05:34:20;;;;;;;43.67;18.05;;;;;;;;;;4890058;29;20501;-93
2022/11/26 05:36:46;;;;;;;52.50;18.33;;;;;;;;;;4888477;29;20206;-93
2022/11/26 05:39:15;;;;;;;39.92;15.57;;;;;;;;;;4887091;29;20201;-94
2022/11/26 05:41:41;;;;;;;58.37;17.20;;;;;;;;;;4893496;29;20682;-94
2022/11/26 05:44:07;;;;;;;44.22;17.85;;;;;;;;;;4907462;29;20449;-93
2022/11/26 05:46:38;;;;;;;43.35;15.77;;;;;;;;;;4906421;29;20189;-93
2022/11/26 05:49:04;;;;;;;47.50;18.60;;;;;;;;;;4904879;29;20185;-94
2022/11/26 05:51:33;;;;;;;49.42;19.40;;;;;;;;;;4898328;29;20172;-92
2022/11/26 05:57:35;;;;;;;47.23;19.23;;;;;;;;;;4923763;29;20227;-91
2022/11/26 07:48:06;;;;;;;33.27;14.13;;;;;;;;;;5344720;23;20474;-91
2022/11/26 07:50:32;;;;;;;33.30;14.70;;;;;;;;;;4938864;29;20962;-90
2022/11/26 07:53:01;;;;;;;21.53;12.77;;;;;;;;;;4947278;28;20696;-90
2022/11/26 07:55:33;;;;;;;23.83;13.67;;;;;;;;;;4969975;28;20445;-90
2022/11/26 07:57:59;;;;;;;28.85;13.90;;;;;;;;;;4945569;29;20442;-91
2022/11/26 08:00:37;;;;;;;27.95;12.45;;;;;;;;;;4954149;29;20251;-89
2022/11/26 08:03:03;;;;;;;33.47;14.33;;;;;;;;;;4937279;29;20376;-90
2022/11/26 08:05:29;;;;;;;34.97;12.13;;;;;;;;;;4936652;29;20545;-91
2022/11/26 08:07:56;;;;;;;21.63;10.37;;;;;;;;;;4938202;29;20504;-90
2022/11/26 08:10:22;;;;;;;20.07;11.07;;;;;;;;;;4954410;29;20434;-91
2022/11/26 08:12:58;;;;;;;28.67;10.67;;;;;;;;;;4954897;29;20509;-91
2022/11/26 08:15:34;;;;;;;22.33;10.63;;;;;;;;;;4932555;29;20450;-91
2022/11/26 08:18:02;;;;;;;16.80;9.07;;;;;;;;;;4942023;29;21119;-90
2022/11/26 08:20:28;;;;;;;21.67;8.73;;;;;;;;;;4939876;29;20479;-90
2022/11/26 08:22:54;;;;;;;15.00;9.30;;;;;;;;;;4941178;29;20447;-91
2022/11/26 08:25:20;;;;;;;16.17;9.93;;;;;;;;;;4941077;29;20831;-87
2022/11/26 08:27:56;;;;;;;;;;;;;;;;;;;;;
2022/11/26 08:38:10;;;;;;;15.03;8.30;;;;;;;;;;4962832;23;10002097;-90
2022/11/26 08:40:36;;;;;;;19.57;8.47;;;;;;;;;;4953645;29;21135;-90
2022/11/26 08:43:02;;;;;;;23.37;8.17;;;;;;;;;;4946391;29;21124;-92
2022/11/26 08:45:31;;;;;;;12.27;7.43;;;;;;;;;;4950260;29;20450;-89
2022/11/26 08:47:58;;;;;;;12.00;7.93;;;;;;;;;;4951489;28;20561;-90
2022/11/26 08:50:24;;;;;;;12.27;7.23;;;;;;;;;;4954226;29;20529;-89
2022/11/26 08:52:50;;;;;;;11.87;7.50;;;;;;;;;;4960402;28;20449;-90
2022/11/26 08:55:17;;;;;;;16.65;7.90;;;;;;;;;;4965835;28;20489;-90
2022/11/26 08:57:49;;;;;;;19.27;7.20;;;;;;;;;;4962273;28;20182;-87
2022/11/26 09:00:32;;;;;;;15.80;7.70;;;;;;;;;;4934467;29;20470;-90
2022/11/26 09:02:58;;;;;;;9.03;6.33;;;;;;;;;;4952528;28;20449;-90
2022/11/26 09:05:24;;;;;;;11.10;6.57;;;;;;;;;;4948386;28;20454;-89
2022/11/26 09:07:58;;;;;;;16.70;6.97;;;;;;;;;;4953638;29;20889;-91
2022/11/26 09:10:28;;;;;;;13.67;6.90;;;;;;;;;;4952831;29;20430;-89
2022/11/26 09:13:00;;;;;;;20.03;7.60;;;;;;;;;;4954872;28;20608;-90
2022/11/26 09:15:29;;;;;;;11.93;4.90;;;;;;;;;;4942532;28;21042;-88
2022/11/26 09:17:56;;;;;;;11.87;5.97;;;;;;;;;;4950201;28;20989;-92
2022/11/26 09:20:22;;;;;;;8.20;5.00;;;;;;;;;;4948921;28;20903;-90
2022/11/26 09:22:49;;;;;;;8.63;4.50;;;;;;;;;;4950965;29;20442;-90
2022/11/26 09:25:16;;;;;;;6.80;5.00;;;;;;;;;;4958290;28;20454;-90
2022/11/26 09:27:42;;;;;;;10.20;4.43;;;;;;;;;;4956775;28;20458;-89
2022/11/26 09:30:09;;;;;;;7.70;4.30;;;;;;;;;;4951302;28;20852;-91
2022/11/26 09:32:36;;;;;;;5.53;4.60;;;;;;;;;;4943435;29;20514;-91
2022/11/26 09:35:04;;;;;;;4.67;3.63;;;;;;;;;;4957510;29;20435;-91
2022/11/26 09:37:33;;;;;;;11.10;4.70;;;;;;;;;;4935607;29;20489;-91
2022/11/26 09:39:59;;;;;;;5.07;3.57;;;;;;;;;;4933571;29;20812;-89
2022/11/26 11:41:54;;;;;;;5.53;3.77;;;;;;;;;;5921297;23;20434;-91
2022/11/26 11:57:23;;;;;;;4.17;3.77;;;;;;;;;;5549687;23;20523;-90
2022/11/26 12:00:13;;;;;;;11.10;2.77;;;;;;;;;;4930231;29;20462;-93
2022/11/26 12:02:43;;;;;;;6.70;4.00;;;;;;;;;;4900714;29;20458;-93
2022/11/26 12:05:28;;;;;;;11.07;4.03;;;;;;;;;;4935448;29;20422;-91
2022/11/26 12:08:14;;;;;;;12.93;3.90;;;;;;;;;;4933904;29;20412;-90
